sensor_id;sensor_type;location;lat;lon;timestamp;pressure;altitude;pressure_sealevel;temperature;humidity
8051;BME280;4068;42.158;24.732;2023-02-15T00:01:30;100924.63;;;2.89;83.24
8051;BME280;4068;42.158;24.732;2023-02-15T00:03:55;100923.81;;;2.87;83.88
8051;BME280;4068;42.158;24.732;2023-02-15T00:06:21;100936.25;;;2.79;84.25
8051;BME280;4068;42.158;24.732;2023-02-15T00:08:47;100930.06;;;2.82;84.22
8051;BME280;4068;42.158;24.732;2023-02-15T00:11:15;100933.47;;;2.85;84.17
8051;BME280;4068;42.158;24.732;2023-02-15T00:13:41;100904.38;;;2.62;84.87
8051;BME280;4068;42.158;24.732;2023-02-15T00:16:08;100930.91;;;2.84;84.92
8051;BME280;4068;42.158;24.732;2023-02-15T00:18:34;100934.38;;;2.84;85.54
8051;BME280;4068;42.158;24.732;2023-02-15T00:21:08;100930.16;;;2.79;86.34
8051;BME280;4068;42.158;24.732;2023-02-15T00:23:34;100901.69;;;2.65;87.02
8051;BME280;4068;42.158;24.732;2023-02-15T00:26:08;100937.22;;;2.75;87.49
8051;BME280;4068;42.158;24.732;2023-02-15T00:28:34;100902.00;;;2.52;87.91
8051;BME280;4068;42.158;24.732;2023-02-15T00:31:07;100934.75;;;2.69;88.39
8051;BME280;4068;42.158;24.732;2023-02-15T00:33:33;100930.41;;;2.68;88.63
8051;BME280;4068;42.158;24.732;2023-02-15T00:35:59;100934.28;;;2.53;89.78
8051;BME280;4068;42.158;24.732;2023-02-15T00:38:27;100931.69;;;2.53;89.87
8051;BME280;4068;42.158;24.732;2023-02-15T00:40:57;100923.22;;;2.41;90.41
8051;BME280;4068;42.158;24.732;2023-02-15T00:43:24;100934.50;;;2.44;90.52
8051;BME280;4068;42.158;24.732;2023-02-15T00:45:49;100916.63;;;2.25;91.35
8051;BME280;4068;42.158;24.732;2023-02-15T00:48:15;100938.94;;;2.41;90.60
8051;BME280;4068;42.158;24.732;2023-02-15T00:50:41;100923.63;;;2.24;90.58
8051;BME280;4068;42.158;24.732;2023-02-15T00:53:06;100940.03;;;2.33;90.43
8051;BME280;4068;42.158;24.732;2023-02-15T00:55:32;100938.38;;;2.29;90.44
8051;BME280;4068;42.158;24.732;2023-02-15T00:57:57;100935.88;;;2.24;90.97
8051;BME280;4068;42.158;24.732;2023-02-15T01:00:24;100924.53;;;2.23;90.84
8051;BME280;4068;42.158;24.732;2023-02-15T01:02:49;100909.03;;;2.14;90.76
8051;BME280;4068;42.158;24.732;2023-02-15T01:05:15;100902.75;;;2.21;89.95
8051;BME280;4068;42.158;24.732;2023-02-15T01:07:40;100932.81;;;2.42;89.46
8051;BME280;4068;42.158;24.732;2023-02-15T01:10:07;100933.63;;;2.45;89.03
8051;BME280;4068;42.158;24.732;2023-02-15T01:12:33;100920.53;;;2.45;89.67
8051;BME280;4068;42.158;24.732;2023-02-15T01:14:59;100921.56;;;2.37;89.68
8051;BME280;4068;42.158;24.732;2023-02-15T01:17:25;100919.63;;;2.46;89.70
8051;BME280;4068;42.158;24.732;2023-02-15T01:19:50;100915.25;;;2.46;89.53
8051;BME280;4068;42.158;24.732;2023-02-15T01:22:17;100903.88;;;2.47;90.04
8051;BME280;4068;42.158;24.732;2023-02-15T01:24:42;100912.50;;;2.52;89.26
8051;BME280;4068;42.158;24.732;2023-02-15T01:27:07;100907.94;;;2.59;88.93
8051;BME280;4068;42.158;24.732;2023-02-15T01:29:33;100901.97;;;2.54;89.15
8051;BME280;4068;42.158;24.732;2023-02-15T01:31:58;100903.75;;;2.52;89.89
8051;BME280;4068;42.158;24.732;2023-02-15T01:34:23;100896.91;;;2.46;90.00
8051;BME280;4068;42.158;24.732;2023-02-15T01:36:49;100907.44;;;2.45;90.10
8051;BME280;4068;42.158;24.732;2023-02-15T01:39:14;100911.69;;;2.49;89.69
8051;BME280;4068;42.158;24.732;2023-02-15T01:41:40;100901.13;;;2.52;89.11
8051;BME280;4068;42.158;24.732;2023-02-15T01:47:10;100922.69;;;2.63;88.38
8051;BME280;4068;42.158;24.732;2023-02-15T01:49:38;100914.28;;;2.50;89.04
8051;BME280;4068;42.158;24.732;2023-02-15T01:52:08;100889.31;;;2.37;88.92
8051;BME280;4068;42.158;24.732;2023-02-15T01:54:37;100922.03;;;2.53;88.61
8051;BME280;4068;42.158;24.732;2023-02-15T01:57:09;100930.78;;;2.54;88.50
8051;BME280;4068;42.158;24.732;2023-02-15T01:59:37;100923.94;;;2.48;88.38
8051;BME280;4068;42.158;24.732;2023-02-15T02:02:06;100937.03;;;2.48;88.42
8051;BME280;4068;42.158;24.732;2023-02-15T02:04:40;100941.34;;;2.49;88.30
8051;BME280;4068;42.158;24.732;2023-02-15T02:07:07;100925.88;;;2.40;88.55
8051;BME280;4068;42.158;24.732;2023-02-15T02:09:33;100936.13;;;2.49;88.62
8051;BME280;4068;42.158;24.732;2023-02-15T02:11:59;100926.59;;;2.45;88.44
8051;BME280;4068;42.158;24.732;2023-02-15T02:14:26;100944.66;;;2.57;88.28
8051;BME280;4068;42.158;24.732;2023-02-15T02:17:53;100941.13;;;2.58;87.75
8051;BME280;4068;42.158;24.732;2023-02-15T02:20:25;100945.53;;;2.56;87.71
8051;BME280;4068;42.158;24.732;2023-02-15T02:35:01;100949.38;;;2.43;88.81
8051;BME280;4068;42.158;24.732;2023-02-15T02:37:59;100950.13;;;2.48;89.26
8051;BME280;4068;42.158;24.732;2023-02-15T02:43:31;100963.09;;;2.53;87.82
8051;BME280;4068;42.158;24.732;2023-02-15T02:46:02;100947.50;;;2.48;87.95
8051;BME280;4068;42.158;24.732;2023-02-15T02:48:32;100964.91;;;2.49;87.32
8051;BME280;4068;42.158;24.732;2023-02-15T02:50:58;100940.88;;;2.33;87.56
8051;BME280;4068;42.158;24.732;2023-02-15T02:53:24;100948.66;;;2.36;87.50
8051;BME280;4068;42.158;24.732;2023-02-15T02:55:56;100931.56;;;2.21;87.69
8051;BME280;4068;42.158;24.732;2023-02-15T02:58:33;100957.19;;;2.45;87.12
8051;BME280;4068;42.158;24.732;2023-02-15T03:01:06;100954.53;;;2.46;87.37
8051;BME280;4068;42.158;24.732;2023-02-15T03:03:41;100946.78;;;2.41;87.16
8051;BME280;4068;42.158;24.732;2023-02-15T03:06:16;100957.47;;;2.32;88.06
8051;BME280;4068;42.158;24.732;2023-02-15T03:08:47;100951.47;;;2.29;88.35
8051;BME280;4068;42.158;24.732;2023-02-15T03:11:14;100968.09;;;2.26;88.05
8051;BME280;4068;42.158;24.732;2023-02-15T03:13:40;100951.00;;;2.11;88.21
8051;BME280;4068;42.158;24.732;2023-02-15T03:16:07;100970.97;;;2.15;89.11
8051;BME280;4068;42.158;24.732;2023-02-15T03:19:06;100964.91;;;2.13;89.72
8051;BME280;4068;42.158;24.732;2023-02-15T03:21:47;100952.09;;;2.01;89.38
8051;BME280;4068;42.158;24.732;2023-02-15T03:24:25;100969.34;;;2.10;90.10
8051;BME280;4068;42.158;24.732;2023-02-15T03:26:53;100964.16;;;2.06;91.70
8051;BME280;4068;42.158;24.732;2023-02-15T03:29:22;100966.00;;;2.03;91.70
8051;BME280;4068;42.158;24.732;2023-02-15T03:31:53;100958.28;;;1.98;92.28
8051;BME280;4068;42.158;24.732;2023-02-15T03:34:20;100934.34;;;1.75;93.46
8051;BME280;4068;42.158;24.732;2023-02-15T03:36:52;100941.22;;;1.80;94.32
8051;BME280;4068;42.158;24.732;2023-02-15T03:42:04;100959.03;;;2.02;93.62
8051;BME280;4068;42.158;24.732;2023-02-15T03:44:58;100973.78;;;2.06;93.12
8051;BME280;4068;42.158;24.732;2023-02-15T03:47:26;100963.16;;;2.12;92.62
8051;BME280;4068;42.158;24.732;2023-02-15T03:50:00;100976.94;;;2.20;91.85
8051;BME280;4068;42.158;24.732;2023-02-15T03:52:28;100976.00;;;2.24;91.82
8051;BME280;4068;42.158;24.732;2023-02-15T03:54:55;100952.63;;;2.17;91.26
8051;BME280;4068;42.158;24.732;2023-02-15T03:57:27;100970.59;;;2.31;91.33
8051;BME280;4068;42.158;24.732;2023-02-15T04:00:20;100979.25;;;2.34;94.45
8051;BME280;4068;42.158;24.732;2023-02-15T04:05:56;100976.72;;;2.67;97.50
8051;BME280;4068;42.158;24.732;2023-02-15T04:08:22;100979.25;;;2.70;93.32
8051;BME280;4068;42.158;24.732;2023-02-15T04:11:07;100970.44;;;2.74;97.91
8051;BME280;4068;42.158;24.732;2023-02-15T04:13:32;100967.47;;;2.88;96.40
8051;BME280;4068;42.158;24.732;2023-02-15T04:15:58;100972.91;;;2.79;90.67
8051;BME280;4068;42.158;24.732;2023-02-15T04:18:40;100978.19;;;2.78;91.19
8051;BME280;4068;42.158;24.732;2023-02-15T04:21:26;100989.63;;;2.75;92.85
8051;BME280;4068;42.158;24.732;2023-02-15T04:24:11;100981.28;;;2.59;93.22
8051;BME280;4068;42.158;24.732;2023-02-15T04:26:55;100988.72;;;2.40;91.25
8051;BME280;4068;42.158;24.732;2023-02-15T04:29:22;100982.03;;;2.28;91.10
8051;BME280;4068;42.158;24.732;2023-02-15T04:31:49;100993.53;;;2.19;91.00
8051;BME280;4068;42.158;24.732;2023-02-15T04:34:15;100975.00;;;1.91;91.28
8051;BME280;4068;42.158;24.732;2023-02-15T04:36:41;100995.94;;;1.89;92.76
8051;BME280;4068;42.158;24.732;2023-02-15T04:39:06;100997.00;;;1.81;93.32
8051;BME280;4068;42.158;24.732;2023-02-15T04:41:33;101000.59;;;1.75;93.68
8051;BME280;4068;42.158;24.732;2023-02-15T04:43:59;100990.56;;;1.55;94.27
8051;BME280;4068;42.158;24.732;2023-02-15T04:46:26;100985.56;;;1.44;95.63
8051;BME280;4068;42.158;24.732;2023-02-15T04:48:51;101009.16;;;1.41;96.77
8051;BME280;4068;42.158;24.732;2023-02-15T04:51:17;101002.31;;;1.32;98.33
8051;BME280;4068;42.158;24.732;2023-02-15T04:53:42;100999.13;;;1.16;97.50
8051;BME280;4068;42.158;24.732;2023-02-15T04:56:07;101015.69;;;1.15;100.00
8051;BME280;4068;42.158;24.732;2023-02-15T04:58:33;101023.53;;;1.15;100.00
8051;BME280;4068;42.158;24.732;2023-02-15T05:01:00;100994.94;;;1.08;100.00
8051;BME280;4068;42.158;24.732;2023-02-15T05:03:25;100997.53;;;1.09;99.92
8051;BME280;4068;42.158;24.732;2023-02-15T05:05:51;101006.06;;;1.19;100.00
8051;BME280;4068;42.158;24.732;2023-02-15T05:08:16;101004.19;;;1.26;99.50
8051;BME280;4068;42.158;24.732;2023-02-15T05:10:42;101018.00;;;1.32;100.00
8051;BME280;4068;42.158;24.732;2023-02-15T05:13:07;101043.75;;;1.52;99.42
8051;BME280;4068;42.158;24.732;2023-02-15T05:15:33;101035.97;;;1.49;99.20
8051;BME280;4068;42.158;24.732;2023-02-15T05:17:58;101024.00;;;1.37;99.96
8051;BME280;4068;42.158;24.732;2023-02-15T05:20:24;101055.16;;;1.50;100.00
8051;BME280;4068;42.158;24.732;2023-02-15T05:22:53;101048.09;;;1.55;99.44
8051;BME280;4068;42.158;24.732;2023-02-15T05:25:19;101034.13;;;1.56;98.30
8051;BME280;4068;42.158;24.732;2023-02-15T05:28:03;101045.38;;;1.61;98.58
8051;BME280;4068;42.158;24.732;2023-02-15T05:30:48;101036.72;;;1.58;97.66
8051;BME280;4068;42.158;24.732;2023-02-15T05:33:14;101066.97;;;1.69;97.43
8051;BME280;4068;42.158;24.732;2023-02-15T05:35:40;101024.47;;;1.60;96.66
8051;BME280;4068;42.158;24.732;2023-02-15T05:38:05;101071.13;;;1.81;96.85
8051;BME280;4068;42.158;24.732;2023-02-15T05:40:31;101065.84;;;1.84;96.49
8051;BME280;4068;42.158;24.732;2023-02-15T05:42:57;101044.28;;;1.71;96.40
8051;BME280;4068;42.158;24.732;2023-02-15T05:45:22;101040.69;;;1.77;96.74
8051;BME280;4068;42.158;24.732;2023-02-15T05:47:48;101071.44;;;2.10;96.29
8051;BME280;4068;42.158;24.732;2023-02-15T05:50:14;101079.13;;;2.17;96.42
8051;BME280;4068;42.158;24.732;2023-02-15T05:52:39;101081.31;;;2.37;94.29
8051;BME280;4068;42.158;24.732;2023-02-15T05:55:05;101083.75;;;2.45;94.35
8051;BME280;4068;42.158;24.732;2023-02-15T05:57:32;101073.38;;;2.40;93.68
8051;BME280;4068;42.158;24.732;2023-02-15T05:59:57;101092.19;;;2.59;93.06
8051;BME280;4068;42.158;24.732;2023-02-15T06:02:23;101085.13;;;2.62;92.66
8051;BME280;4068;42.158;24.732;2023-02-15T06:04:48;101097.88;;;2.77;91.46
8051;BME280;4068;42.158;24.732;2023-02-15T06:07:13;101089.94;;;2.80;90.84
8051;BME280;4068;42.158;24.732;2023-02-15T06:09:39;101106.81;;;3.06;89.32
8051;BME280;4068;42.158;24.732;2023-02-15T06:12:05;101087.56;;;3.07;88.31
8051;BME280;4068;42.158;24.732;2023-02-15T06:14:30;101094.84;;;3.30;87.56
8051;BME280;4068;42.158;24.732;2023-02-15T06:16:56;101087.66;;;3.38;86.51
8051;BME280;4068;42.158;24.732;2023-02-15T06:19:21;101076.03;;;3.47;85.68
8051;BME280;4068;42.158;24.732;2023-02-15T06:21:48;101093.78;;;3.70;84.58
8051;BME280;4068;42.158;24.732;2023-02-15T06:24:13;101076.34;;;3.68;83.55
8051;BME280;4068;42.158;24.732;2023-02-15T06:26:38;101100.03;;;3.99;83.21
8051;BME280;4068;42.158;24.732;2023-02-15T06:29:04;101106.63;;;4.12;82.45
8051;BME280;4068;42.158;24.732;2023-02-15T06:31:29;101074.44;;;4.06;81.48
8051;BME280;4068;42.158;24.732;2023-02-15T06:33:55;101090.44;;;4.28;80.95
8051;BME280;4068;42.158;24.732;2023-02-15T06:36:27;101090.13;;;4.37;79.92
8051;BME280;4068;42.158;24.732;2023-02-15T06:38:53;101107.84;;;4.60;79.32
8051;BME280;4068;42.158;24.732;2023-02-15T06:41:19;101078.16;;;4.57;78.59
8051;BME280;4068;42.158;24.732;2023-02-15T06:43:44;101098.47;;;4.80;77.51
8051;BME280;4068;42.158;24.732;2023-02-15T06:46:09;101108.50;;;4.95;76.94
8051;BME280;4068;42.158;24.732;2023-02-15T06:48:35;101115.91;;;5.11;76.29
8051;BME280;4068;42.158;24.732;2023-02-15T06:51:00;101117.13;;;5.27;75.44
8051;BME280;4068;42.158;24.732;2023-02-15T06:53:26;101115.84;;;5.39;74.40
8051;BME280;4068;42.158;24.732;2023-02-15T06:55:51;101113.72;;;5.50;73.66
8051;BME280;4068;42.158;24.732;2023-02-15T06:58:16;101114.31;;;5.59;72.89
8051;BME280;4068;42.158;24.732;2023-02-15T07:00:42;101113.06;;;5.69;71.55
8051;BME280;4068;42.158;24.732;2023-02-15T07:03:08;101103.50;;;5.66;71.00
8051;BME280;4068;42.158;24.732;2023-02-15T07:05:34;101084.00;;;5.72;70.30
8051;BME280;4068;42.158;24.732;2023-02-15T07:08:00;101091.22;;;5.91;69.88
8051;BME280;4068;42.158;24.732;2023-02-15T07:10:26;101068.69;;;5.83;68.95
8051;BME280;4068;42.158;24.732;2023-02-15T07:12:53;101090.66;;;6.08;68.47
8051;BME280;4068;42.158;24.732;2023-02-15T07:15:19;101092.38;;;6.09;67.72
8051;BME280;4068;42.158;24.732;2023-02-15T07:17:48;101100.63;;;6.23;67.87
8051;BME280;4068;42.158;24.732;2023-02-15T07:20:18;101071.84;;;6.17;67.01
8051;BME280;4068;42.158;24.732;2023-02-15T07:22:45;101103.34;;;6.44;67.07
8051;BME280;4068;42.158;24.732;2023-02-15T07:25:11;101103.22;;;6.47;67.10
8051;BME280;4068;42.158;24.732;2023-02-15T07:27:38;101107.28;;;6.55;66.16
8051;BME280;4068;42.158;24.732;2023-02-15T07:30:05;101098.31;;;6.60;66.02
8051;BME280;4068;42.158;24.732;2023-02-15T07:32:32;101063.56;;;6.50;65.47
8051;BME280;4068;42.158;24.732;2023-02-15T07:34:58;101093.44;;;6.72;65.11
8051;BME280;4068;42.158;24.732;2023-02-15T07:37:23;101095.84;;;6.79;65.53
8051;BME280;4068;42.158;24.732;2023-02-15T07:39:49;101099.75;;;6.90;63.81
8051;BME280;4068;42.158;24.732;2023-02-15T07:42:15;101090.19;;;6.88;63.98
8051;BME280;4068;42.158;24.732;2023-02-15T07:44:40;101100.06;;;7.05;63.78
8051;BME280;4068;42.158;24.732;2023-02-15T07:47:06;101107.91;;;7.06;64.41
8051;BME280;4068;42.158;24.732;2023-02-15T07:49:31;101102.50;;;7.09;64.02
8051;BME280;4068;42.158;24.732;2023-02-15T07:51:57;101104.53;;;7.03;64.22
8051;BME280;4068;42.158;24.732;2023-02-15T07:54:22;101085.13;;;7.04;64.24
8051;BME280;4068;42.158;24.732;2023-02-15T07:56:47;101107.28;;;7.22;63.67
8051;BME280;4068;42.158;24.732;2023-02-15T07:59:13;101113.72;;;7.37;62.90
8051;BME280;4068;42.158;24.732;2023-02-15T08:01:39;101106.22;;;7.47;63.02
8051;BME280;4068;42.158;24.732;2023-02-15T08:04:06;101104.94;;;7.57;61.57
8051;BME280;4068;42.158;24.732;2023-02-15T08:06:34;101106.47;;;7.63;61.02
8051;BME280;4068;42.158;24.732;2023-02-15T08:09:00;101086.38;;;7.58;61.35
8051;BME280;4068;42.158;24.732;2023-02-15T08:11:28;101102.41;;;7.74;60.90
8051;BME280;4068;42.158;24.732;2023-02-15T08:14:06;101100.47;;;7.78;60.61
8051;BME280;4068;42.158;24.732;2023-02-15T08:16:37;101103.09;;;7.80;60.51
8051;BME280;4068;42.158;24.732;2023-02-15T08:19:16;101101.81;;;7.88;59.57
8051;BME280;4068;42.158;24.732;2023-02-15T08:21:44;101100.53;;;7.97;59.34
8051;BME280;4068;42.158;24.732;2023-02-15T08:24:11;101070.19;;;7.87;59.54
8051;BME280;4068;42.158;24.732;2023-02-15T08:26:38;101064.75;;;7.90;59.58
8051;BME280;4068;42.158;24.732;2023-02-15T08:29:05;101093.91;;;8.07;58.72
8051;BME280;4068;42.158;24.732;2023-02-15T08:31:31;101091.84;;;8.14;59.25
8051;BME280;4068;42.158;24.732;2023-02-15T08:33:57;101078.06;;;8.07;59.33
8051;BME280;4068;42.158;24.732;2023-02-15T08:36:24;101105.56;;;8.22;59.01
8051;BME280;4068;42.158;24.732;2023-02-15T08:38:51;101094.63;;;8.30;58.83
8051;BME280;4068;42.158;24.732;2023-02-15T08:41:21;101087.00;;;8.24;58.27
8051;BME280;4068;42.158;24.732;2023-02-15T08:43:49;101101.72;;;8.29;59.20
8051;BME280;4068;42.158;24.732;2023-02-15T08:46:16;101103.69;;;8.43;57.97
8051;BME280;4068;42.158;24.732;2023-02-15T08:48:42;101087.59;;;8.50;57.47
8051;BME280;4068;42.158;24.732;2023-02-15T08:53:41;101107.16;;;8.64;57.03
8051;BME280;4068;42.158;24.732;2023-02-15T08:56:08;101108.81;;;8.67;57.24
8051;BME280;4068;42.158;24.732;2023-02-15T08:58:34;101101.78;;;8.66;56.87
8051;BME280;4068;42.158;24.732;2023-02-15T09:01:00;101094.84;;;8.63;57.48
8051;BME280;4068;42.158;24.732;2023-02-15T09:03:28;101090.94;;;8.72;57.09
8051;BME280;4068;42.158;24.732;2023-02-15T09:06:00;101104.88;;;8.93;57.00
8051;BME280;4068;42.158;24.732;2023-02-15T09:08:27;101097.44;;;9.02;56.32
8051;BME280;4068;42.158;24.732;2023-02-15T09:10:53;101104.63;;;9.17;55.52
8051;BME280;4068;42.158;24.732;2023-02-15T09:13:18;101099.91;;;9.24;55.67
8051;BME280;4068;42.158;24.732;2023-02-15T09:15:45;101093.59;;;9.26;55.08
8051;BME280;4068;42.158;24.732;2023-02-15T09:18:10;101092.28;;;9.35;54.43
8051;BME280;4068;42.158;24.732;2023-02-15T09:20:37;101097.56;;;9.35;53.85
8051;BME280;4068;42.158;24.732;2023-02-15T09:23:03;101090.38;;;9.37;54.44
8051;BME280;4068;42.158;24.732;2023-02-15T09:25:28;101074.16;;;9.43;54.94
8051;BME280;4068;42.158;24.732;2023-02-15T09:27:54;101072.78;;;9.54;53.65
8051;BME280;4068;42.158;24.732;2023-02-15T09:30:19;101077.13;;;9.72;54.00
8051;BME280;4068;42.158;24.732;2023-02-15T09:32:45;101074.22;;;9.77;53.55
8051;BME280;4068;42.158;24.732;2023-02-15T09:35:11;101058.25;;;9.78;52.85
8051;BME280;4068;42.158;24.732;2023-02-15T09:37:37;101077.63;;;9.96;52.02
8051;BME280;4068;42.158;24.732;2023-02-15T09:40:03;101068.41;;;10.04;51.79
8051;BME280;4068;42.158;24.732;2023-02-15T09:42:47;101051.91;;;9.65;52.02
8051;BME280;4068;42.158;24.732;2023-02-15T09:45:46;101067.03;;;9.79;52.80
8051;BME280;4068;42.158;24.732;2023-02-15T09:48:23;101067.53;;;10.03;52.76
8051;BME280;4068;42.158;24.732;2023-02-15T09:54:01;101049.50;;;10.26;51.89
8051;BME280;4068;42.158;24.732;2023-02-15T09:56:53;101044.03;;;10.29;51.07
8051;BME280;4068;42.158;24.732;2023-02-15T09:59:36;101043.44;;;10.24;51.72
8051;BME280;4068;42.158;24.732;2023-02-15T10:27:21;100996.59;;;10.40;48.92
8051;BME280;4068;42.158;24.732;2023-02-15T10:32:25;101017.31;;;10.80;49.14
8051;BME280;4068;42.158;24.732;2023-02-15T10:42:44;100998.34;;;11.02;46.97
8051;BME280;4068;42.158;24.732;2023-02-15T10:53:26;100999.31;;;11.15;45.78
8051;BME280;4068;42.158;24.732;2023-02-15T11:06:09;100969.09;;;11.18;45.79
8051;BME280;4068;42.158;24.732;2023-02-15T11:08:42;100964.25;;;11.25;45.53
8051;BME280;4068;42.158;24.732;2023-02-15T11:11:30;100979.72;;;11.32;45.38
8051;BME280;4068;42.158;24.732;2023-02-15T11:14:00;100971.53;;;11.21;45.42
8051;BME280;4068;42.158;24.732;2023-02-15T11:16:31;100971.66;;;11.34;45.22
8051;BME280;4068;42.158;24.732;2023-02-15T11:19:28;100966.09;;;11.53;44.43
8051;BME280;4068;42.158;24.732;2023-02-15T11:22:02;100938.94;;;11.19;45.24
8051;BME280;4068;42.158;24.732;2023-02-15T11:24:30;100963.97;;;11.44;44.61
8051;BME280;4068;42.158;24.732;2023-02-15T11:27:19;100951.63;;;11.57;44.28
8051;BME280;4068;42.158;24.732;2023-02-15T11:29:58;100942.91;;;11.69;44.17
8051;BME280;4068;42.158;24.732;2023-02-15T11:32:44;100950.31;;;11.79;43.73
8051;BME280;4068;42.158;24.732;2023-02-15T11:37:50;100935.09;;;11.81;43.83
8051;BME280;4068;42.158;24.732;2023-02-15T11:42:53;100936.91;;;11.80;43.68
8051;BME280;4068;42.158;24.732;2023-02-15T11:45:31;100937.09;;;11.91;43.56
8051;BME280;4068;42.158;24.732;2023-02-15T11:47:58;100924.28;;;11.98;43.08
8051;BME280;4068;42.158;24.732;2023-02-15T11:50:29;100929.84;;;12.08;43.47
8051;BME280;4068;42.158;24.732;2023-02-15T11:53:10;100931.75;;;12.06;43.14
8051;BME280;4068;42.158;24.732;2023-02-15T11:55:38;100912.78;;;11.98;42.69
8051;BME280;4068;42.158;24.732;2023-02-15T11:58:28;100915.03;;;12.04;42.28
8051;BME280;4068;42.158;24.732;2023-02-15T12:01:04;100913.06;;;11.93;42.47
8051;BME280;4068;42.158;24.732;2023-02-15T12:03:43;100911.44;;;12.05;42.24
8051;BME280;4068;42.158;24.732;2023-02-15T12:06:19;100874.22;;;11.90;42.34
8051;BME280;4068;42.158;24.732;2023-02-15T12:08:53;100904.66;;;12.14;41.90
8051;BME280;4068;42.158;24.732;2023-02-15T12:11:30;100909.69;;;12.18;41.41
8051;BME280;4068;42.158;24.732;2023-02-15T12:14:00;100911.50;;;12.18;41.11
8051;BME280;4068;42.158;24.732;2023-02-15T12:16:27;100913.22;;;12.19;41.19
8051;BME280;4068;42.158;24.732;2023-02-15T12:18:56;100888.91;;;12.11;41.32
8051;BME280;4068;42.158;24.732;2023-02-15T12:21:30;100903.56;;;12.31;41.64
8051;BME280;4068;42.158;24.732;2023-02-15T12:24:18;100910.97;;;12.25;41.83
8051;BME280;4068;42.158;24.732;2023-02-15T12:26:56;100903.75;;;12.28;41.56
8051;BME280;4068;42.158;24.732;2023-02-15T12:29:26;100896.63;;;12.28;41.19
8051;BME280;4068;42.158;24.732;2023-02-15T12:31:53;100894.84;;;12.29;40.65
8051;BME280;4068;42.158;24.732;2023-02-15T12:36:52;100894.47;;;12.20;40.36
8051;BME280;4068;42.158;24.732;2023-02-15T12:39:28;100890.22;;;12.18;41.12
8051;BME280;4068;42.158;24.732;2023-02-15T12:44:22;100887.59;;;12.31;40.95
8051;BME280;4068;42.158;24.732;2023-02-15T12:49:36;100881.59;;;12.54;40.04
8051;BME280;4068;42.158;24.732;2023-02-15T12:52:23;100881.84;;;12.64;40.01
8051;BME280;4068;42.158;24.732;2023-02-15T12:54:49;100873.72;;;12.53;39.61
8051;BME280;4068;42.158;24.732;2023-02-15T12:57:32;100882.41;;;12.42;39.93
8051;BME280;4068;42.158;24.732;2023-02-15T13:00:26;100882.06;;;12.34;40.41
8051;BME280;4068;42.158;24.732;2023-02-15T13:02:55;100877.41;;;12.37;40.39
8051;BME280;4068;42.158;24.732;2023-02-15T13:07:56;100877.66;;;12.47;39.13
8051;BME280;4068;42.158;24.732;2023-02-15T13:10:35;100873.63;;;12.54;39.16
8051;BME280;4068;42.158;24.732;2023-02-15T13:13:01;100880.19;;;12.49;39.36
8051;BME280;4068;42.158;24.732;2023-02-15T13:15:37;100876.78;;;12.47;39.26
8051;BME280;4068;42.158;24.732;2023-02-15T13:18:07;100869.84;;;12.44;39.69
8051;BME280;4068;42.158;24.732;2023-02-15T13:20:36;100855.47;;;12.34;39.95
8051;BME280;4068;42.158;24.732;2023-02-15T13:23:05;100875.09;;;12.46;39.81
8051;BME280;4068;42.158;24.732;2023-02-15T13:25:40;100867.84;;;12.48;39.76
8051;BME280;4068;42.158;24.732;2023-02-15T13:28:12;100872.09;;;12.37;40.13
8051;BME280;4068;42.158;24.732;2023-02-15T13:30:43;100851.84;;;12.35;39.66
8051;BME280;4068;42.158;24.732;2023-02-15T13:33:26;100832.44;;;12.20;39.56
8051;BME280;4068;42.158;24.732;2023-02-15T13:36:01;100833.91;;;12.11;40.08
8051;BME280;4068;42.158;24.732;2023-02-15T13:38:57;100853.50;;;12.10;40.41
8051;BME280;4068;42.158;24.732;2023-02-15T13:41:37;100858.94;;;12.08;40.14
8051;BME280;4068;42.158;24.732;2023-02-15T13:44:18;100802.25;;;11.66;41.11
8051;BME280;4068;42.158;24.732;2023-02-15T13:52:26;100827.75;;;12.11;39.08
8051;BME280;4068;42.158;24.732;2023-02-15T14:01:14;100850.91;;;11.96;40.40
8051;BME280;4068;42.158;24.732;2023-02-15T14:14:05;100852.88;;;12.19;39.93
8051;BME280;4068;42.158;24.732;2023-02-15T14:16:53;100848.34;;;12.07;39.81
8051;BME280;4068;42.158;24.732;2023-02-15T14:22:28;100847.59;;;11.78;40.31
8051;BME280;4068;42.158;24.732;2023-02-15T14:25:25;100829.69;;;11.67;40.57
8051;BME280;4068;42.158;24.732;2023-02-15T14:30:26;100851.34;;;11.88;40.33
8051;BME280;4068;42.158;24.732;2023-02-15T14:35:50;100834.84;;;11.41;41.18
8051;BME280;4068;42.158;24.732;2023-02-15T14:40:59;100830.34;;;11.29;41.71
8051;BME280;4068;42.158;24.732;2023-02-15T14:46:03;100850.97;;;11.52;41.38
8051;BME280;4068;42.158;24.732;2023-02-15T14:51:03;100850.97;;;11.52;41.38
8051;BME280;4068;42.158;24.732;2023-02-15T14:53:39;100858.53;;;11.58;40.03
8051;BME280;4068;42.158;24.732;2023-02-15T14:58:37;100863.72;;;11.47;39.86
8051;BME280;4068;42.158;24.732;2023-02-15T15:01:06;100857.31;;;11.50;39.78
8051;BME280;4068;42.158;24.732;2023-02-15T15:03:33;100856.91;;;11.29;39.97
8051;BME280;4068;42.158;24.732;2023-02-15T15:06:02;100860.50;;;11.13;40.24
8051;BME280;4068;42.158;24.732;2023-02-15T15:08:37;100861.63;;;10.95;40.60
8051;BME280;4068;42.158;24.732;2023-02-15T15:13:57;100857.91;;;10.83;41.21
8051;BME280;4068;42.158;24.732;2023-02-15T15:19:08;100822.16;;;10.60;42.02
8051;BME280;4068;42.158;24.732;2023-02-15T15:41:18;100869.25;;;9.62;45.16
8051;BME280;4068;42.158;24.732;2023-02-15T15:44:31;100868.25;;;9.64;45.91
8051;BME280;4068;42.158;24.732;2023-02-15T15:47:24;100877.06;;;9.65;46.21
8051;BME280;4068;42.158;24.732;2023-02-15T15:49:58;100863.28;;;9.42;46.63
8051;BME280;4068;42.158;24.732;2023-02-15T15:52:24;100856.44;;;9.22;46.78
8051;BME280;4068;42.158;24.732;2023-02-15T15:55:15;100880.75;;;9.29;47.17
8051;BME280;4068;42.158;24.732;2023-02-15T15:57:43;100881.34;;;9.18;47.47
8051;BME280;4068;42.158;24.732;2023-02-15T16:00:28;100892.25;;;9.12;47.91
8051;BME280;4068;42.158;24.732;2023-02-15T16:02:58;100891.75;;;9.05;47.96
8051;BME280;4068;42.158;24.732;2023-02-15T16:05:23;100888.41;;;8.84;48.37
8051;BME280;4068;42.158;24.732;2023-02-15T16:07:49;100889.59;;;8.61;49.26
8051;BME280;4068;42.158;24.732;2023-02-15T16:10:23;100895.50;;;8.49;50.10